createdAt,value
2019-01-30T00:02:22.131Z,1696.73
2019-01-30T00:04:52.628Z,1999.90
2019-01-30T00:07:23.078Z,1842.97
2019-01-30T00:09:53.528Z,1190.40
2019-01-30T00:12:23.982Z,1242.93
2019-01-30T00:14:54.465Z,1411.73
2019-01-30T00:17:24.894Z,559.03
2019-01-30T00:19:55.364Z,632.23
2019-01-30T00:22:25.809Z,1710.83
2019-01-30T00:24:56.263Z,499.37
2019-01-30T00:27:26.640Z,1712.53
2019-01-30T00:30:03.921Z,1323.03
2019-01-30T00:32:29.670Z,1403.73
2019-01-30T00:35:00.298Z,983.03
2019-01-30T00:37:30.680Z,1306.57
2019-01-30T00:40:01.259Z,645.27
2019-01-30T00:42:31.736Z,923.57
2019-01-30T00:45:02.205Z,742.57
2019-01-30T00:47:34.927Z,1549.73
2019-01-30T00:50:05.497Z,866.60
2019-01-30T00:52:36.029Z,782.03
2019-01-30T00:55:06.972Z,1526.17
2019-01-30T00:57:37.393Z,831.07
2019-01-30T01:00:14.624Z,737.50
2019-01-30T01:02:43.468Z,1041.67
2019-01-30T01:05:15.233Z,792.90
2019-01-30T01:07:45.672Z,918.27
2019-01-30T01:10:16.732Z,1432.13
2019-01-30T01:12:47.150Z,1740.70
2019-01-30T01:15:17.624Z,1389.43
2019-01-30T01:17:48.051Z,877.57
2019-01-30T01:20:18.541Z,540.37
2019-01-30T01:22:48.996Z,1605.70
2019-01-30T01:25:19.436Z,1544.47
2019-01-30T01:27:49.896Z,1323.73
2019-01-30T01:30:25.800Z,786.83
2019-01-30T01:32:56.381Z,835.87
2019-01-30T01:35:26.871Z,1173.00
2019-01-30T01:37:57.337Z,1016.40
2019-01-30T01:40:27.872Z,1262.93
2019-01-30T01:42:58.330Z,1034.37
2019-01-30T01:45:28.756Z,680.17
2019-01-30T01:47:59.120Z,725.50
2019-01-30T01:50:29.462Z,436.17
2019-01-30T01:52:59.904Z,484.90
2019-01-30T01:55:30.743Z,313.60
2019-01-30T01:58:01.188Z,336.57
2019-01-30T02:00:35.661Z,333.77
2019-01-30T02:03:03.763Z,344.30
2019-01-30T02:05:34.236Z,318.20
2019-01-30T02:08:04.705Z,329.30
2019-01-30T02:10:35.788Z,358.37
2019-01-30T02:13:06.330Z,298.10
2019-01-30T02:15:36.758Z,240.23
2019-01-30T02:18:08.577Z,277.93
2019-01-30T02:20:39.174Z,406.90
2019-01-30T02:23:09.598Z,325.87
2019-01-30T02:25:40.010Z,384.50
2019-01-30T02:28:10.443Z,307.23
2019-01-30T02:30:47.546Z,308.80
2019-01-30T02:33:13.057Z,245.23
2019-01-30T02:35:43.425Z,224.70
2019-01-30T02:38:13.890Z,244.63
2019-01-30T02:40:44.337Z,318.10
2019-01-30T02:43:14.790Z,303.37
2019-01-30T02:45:45.293Z,304.33
2019-01-30T02:48:15.736Z,405.30
2019-01-30T02:50:46.101Z,302.20
2019-01-30T02:53:16.551Z,570.33
2019-01-30T02:55:47.003Z,698.30
2019-01-30T02:58:17.422Z,968.97
2019-01-30T03:00:58.532Z,1247.63
2019-01-30T03:03:19.991Z,702.40
2019-01-30T03:05:50.469Z,1611.77
2019-01-30T03:08:20.911Z,789.13
2019-01-30T03:10:51.333Z,683.60
2019-01-30T03:13:21.792Z,1075.37
2019-01-30T03:15:52.250Z,659.83
2019-01-30T03:18:22.678Z,527.40
2019-01-30T03:20:53.108Z,586.40
2019-01-30T03:23:23.578Z,780.63
2019-01-30T03:25:54.013Z,1010.23
2019-01-30T03:28:24.446Z,1203.23
2019-01-30T03:30:54.893Z,759.97
2019-01-30T03:33:25.329Z,360.27
2019-01-30T03:35:55.727Z,501.90
2019-01-30T03:38:26.183Z,511.77
2019-01-30T03:40:56.628Z,587.47
2019-01-30T03:43:27.058Z,322.20
2019-01-30T03:45:57.491Z,327.00
2019-01-30T03:48:27.933Z,502.60
2019-01-30T03:50:58.297Z,300.07
2019-01-30T03:53:28.829Z,331.03
2019-01-30T03:55:59.293Z,368.07
2019-01-30T03:58:29.741Z,278.63
2019-01-30T04:01:00.191Z,371.40
2019-01-30T04:03:30.633Z,260.87
2019-01-30T04:06:01.089Z,312.47
2019-01-30T04:08:31.462Z,232.93
2019-01-30T04:11:01.837Z,276.20
2019-01-30T04:13:32.297Z,269.10
2019-01-30T04:16:02.711Z,266.50
2019-01-30T04:18:33.149Z,226.60
2019-01-30T04:21:03.573Z,223.10
2019-01-30T04:23:34.011Z,266.57
2019-01-30T04:26:04.455Z,200.40
2019-01-30T04:28:34.984Z,219.00
2019-01-30T04:31:05.414Z,207.17
2019-01-30T04:33:35.853Z,203.67
2019-01-30T04:36:06.257Z,199.40
2019-01-30T04:38:36.706Z,227.87
2019-01-30T04:41:07.134Z,253.77
2019-01-30T04:43:37.575Z,232.80
2019-01-30T04:46:08.002Z,242.47
2019-01-30T04:48:38.447Z,211.93
2019-01-30T04:51:08.911Z,210.53
2019-01-30T04:53:39.351Z,230.70
2019-01-30T04:56:09.811Z,221.33
2019-01-30T04:58:40.253Z,245.23
2019-01-30T05:01:11.654Z,277.47
2019-01-30T05:03:42.105Z,279.20
2019-01-30T05:06:12.578Z,279.37
2019-01-30T05:08:42.991Z,249.83
2019-01-30T05:11:13.460Z,245.53
2019-01-30T05:13:44.364Z,229.60
2019-01-30T05:16:14.759Z,229.73
2019-01-30T05:18:45.232Z,197.10
2019-01-30T05:21:15.687Z,245.57
2019-01-30T05:23:46.140Z,208.03
2019-01-30T05:26:16.578Z,237.13
2019-01-30T05:28:47.036Z,227.30
2019-01-30T05:31:17.512Z,260.13
2019-01-30T05:33:48.375Z,271.43
2019-01-30T05:36:18.816Z,259.20
2019-01-30T05:38:49.360Z,253.23
2019-01-30T05:41:20.011Z,376.73
2019-01-30T05:43:50.462Z,324.70
2019-01-30T05:46:20.912Z,289.03
2019-01-30T05:48:51.432Z,415.43
2019-01-30T05:51:21.913Z,334.60
2019-01-30T05:53:52.401Z,306.83
2019-01-30T05:56:22.850Z,340.20
2019-01-30T05:58:53.575Z,264.53
2019-01-30T06:01:24.016Z,352.77
2019-01-30T06:03:54.470Z,406.17
2019-01-30T06:06:24.943Z,351.23
2019-01-30T06:08:55.435Z,444.13
2019-01-30T06:11:25.887Z,340.73
2019-01-30T06:13:56.381Z,419.43
2019-01-30T06:16:26.824Z,398.43
2019-01-30T06:18:57.278Z,277.20
2019-01-30T06:21:27.652Z,349.40
2019-01-30T06:23:58.122Z,262.13
2019-01-30T06:26:28.497Z,287.43
2019-01-30T06:28:58.945Z,239.90
2019-01-30T06:31:29.415Z,259.40
2019-01-30T06:33:59.824Z,275.07
2019-01-30T06:36:30.331Z,297.43
2019-01-30T06:39:00.768Z,308.90
2019-01-30T06:41:32.423Z,299.40
2019-01-30T06:44:02.900Z,292.07
2019-01-30T06:46:33.298Z,269.23
2019-01-30T06:49:03.769Z,327.03
2019-01-30T06:51:34.228Z,258.20
2019-01-30T06:54:04.698Z,262.40
2019-01-30T06:56:35.154Z,447.93
2019-01-30T06:59:05.613Z,291.80
2019-01-30T07:01:35.996Z,293.40
2019-01-30T07:04:06.468Z,274.30
2019-01-30T07:06:36.911Z,346.03
2019-01-30T07:09:10.807Z,336.77
2019-01-30T07:11:41.282Z,251.93
2019-01-30T07:14:11.759Z,294.97
2019-01-30T07:16:42.785Z,284.18
2019-01-30T07:19:13.826Z,250.95
2019-01-30T07:21:44.912Z,225.72
2019-01-30T07:24:15.962Z,199.82
2019-01-30T07:26:47.003Z,211.80
2019-01-30T07:29:18.049Z,263.62
2019-01-30T07:31:49.101Z,403.75
2019-01-30T07:34:21.152Z,534.70
2019-01-30T07:36:52.243Z,273.95
2019-01-30T07:39:23.281Z,209.87
2019-01-30T07:41:54.312Z,219.22
2019-01-30T07:44:25.361Z,204.72
2019-01-30T07:46:56.430Z,262.63
2019-01-30T07:49:27.535Z,319.55
2019-01-30T07:51:58.597Z,261.32
2019-01-30T07:54:29.645Z,253.62
2019-01-30T07:57:00.700Z,261.75
2019-01-30T07:59:32.171Z,211.90
2019-01-30T08:02:03.190Z,190.80
2019-01-30T08:04:34.262Z,194.82
2019-01-30T08:07:05.313Z,189.37
2019-01-30T08:09:36.328Z,187.27
2019-01-30T08:12:07.609Z,187.37
2019-01-30T08:14:38.677Z,186.00
2019-01-30T08:17:09.692Z,134.15
2019-01-30T08:19:40.756Z,156.37
2019-01-30T08:22:11.823Z,145.35
2019-01-30T08:24:43.096Z,119.60
2019-01-30T08:27:14.494Z,129.70
2019-01-30T08:29:46.940Z,111.12
2019-01-30T08:32:18.004Z,119.17
2019-01-30T08:34:49.060Z,102.97
2019-01-30T08:37:20.084Z,103.70
2019-01-30T08:39:51.142Z,133.15
2019-01-30T08:42:22.164Z,111.75
2019-01-30T08:44:53.216Z,81.67
2019-01-30T08:47:24.264Z,85.17
2019-01-30T08:49:55.314Z,94.32
2019-01-30T08:52:26.346Z,94.15
2019-01-30T08:54:57.386Z,94.52
2019-01-30T08:57:28.446Z,105.65
2019-01-30T08:59:59.470Z,95.55
2019-01-30T09:02:30.525Z,84.97
2019-01-30T09:05:01.564Z,98.10
2019-01-30T09:07:43.573Z,81.92
2019-01-30T09:10:06.615Z,98.70
2019-01-30T09:12:37.662Z,89.05
2019-01-30T09:15:10.109Z,84.85
2019-01-30T09:17:41.159Z,60.43
2019-01-30T09:20:14.607Z,66.60
2019-01-30T09:22:45.653Z,57.65
2019-01-30T09:25:18.487Z,62.13
2019-01-30T09:27:50.038Z,55.90
2019-01-30T09:30:23.278Z,57.20
2019-01-30T09:32:55.501Z,58.00
2019-01-30T09:35:26.847Z,61.20
2019-01-30T09:37:57.868Z,62.55
2019-01-30T09:40:28.957Z,62.15
2019-01-30T09:43:00.010Z,56.05
2019-01-30T09:45:31.043Z,51.60
2019-01-30T09:48:02.069Z,54.77
2019-01-30T09:50:34.311Z,62.62
2019-01-30T09:53:07.348Z,74.85
2019-01-30T09:55:38.379Z,62.27
2019-01-30T09:58:09.385Z,61.88
2019-01-30T10:00:40.531Z,51.15
2019-01-30T10:03:11.732Z,50.25
2019-01-30T10:05:42.687Z,49.98
2019-01-30T10:08:13.744Z,49.45
2019-01-30T10:10:44.814Z,45.85
2019-01-30T10:13:15.870Z,47.83
2019-01-30T10:15:47.804Z,51.30
2019-01-30T10:18:18.794Z,37.30
2019-01-30T10:20:49.844Z,51.00
2019-01-30T10:23:20.861Z,50.92
2019-01-30T10:25:51.894Z,53.55
2019-01-30T10:28:22.934Z,51.37
2019-01-30T10:30:53.978Z,50.17
2019-01-30T10:33:24.980Z,67.58
2019-01-30T10:35:56.038Z,64.70
2019-01-30T10:38:27.092Z,59.05
2019-01-30T10:40:58.106Z,51.80
2019-01-30T10:43:29.162Z,53.02
2019-01-30T10:46:01.249Z,55.15
2019-01-30T10:48:32.289Z,54.65
2019-01-30T10:51:03.330Z,64.50
2019-01-30T10:53:34.392Z,62.65
2019-01-30T10:56:05.430Z,61.20
2019-01-30T10:58:36.455Z,61.23
2019-01-30T11:01:07.494Z,66.67
2019-01-30T11:03:38.814Z,60.98
2019-01-30T11:06:09.883Z,65.30
2019-01-30T11:08:40.891Z,61.65
2019-01-30T11:11:11.949Z,59.38
2019-01-30T11:13:42.994Z,67.40
2019-01-30T11:16:14.094Z,59.05
2019-01-30T11:18:45.077Z,67.32
2019-01-30T11:21:16.165Z,57.85
2019-01-30T11:23:47.187Z,58.17
2019-01-30T11:26:18.249Z,54.15
2019-01-30T11:28:49.273Z,52.60
2019-01-30T11:31:20.349Z,60.00
2019-01-30T11:33:51.438Z,51.70
2019-01-30T11:36:22.468Z,52.48
2019-01-30T11:38:53.558Z,44.20
2019-01-30T11:41:24.608Z,40.08
2019-01-30T11:43:55.646Z,35.52
2019-01-30T11:46:26.694Z,33.65
2019-01-30T11:48:57.739Z,23.87
2019-01-30T11:51:28.750Z,21.02
2019-01-30T11:53:59.813Z,18.73
2019-01-30T11:56:31.134Z,12.55
2019-01-30T11:59:02.193Z,17.20
2019-01-30T12:01:33.232Z,12.70
2019-01-30T12:04:04.205Z,9.93
2019-01-30T12:06:35.168Z,15.18
2019-01-30T12:09:08.192Z,16.40
2019-01-30T12:11:39.243Z,14.43
2019-01-30T12:14:10.291Z,15.38
2019-01-30T12:16:41.284Z,16.30
2019-01-30T12:19:12.326Z,27.73
2019-01-30T12:21:43.361Z,29.35
2019-01-30T12:24:14.436Z,20.43
2019-01-30T12:26:45.472Z,32.05
2019-01-30T12:29:17.571Z,32.58
2019-01-30T12:31:48.618Z,11.15
2019-01-30T12:34:28.153Z,12.93
2019-01-30T12:36:52.271Z,19.27
2019-01-30T12:39:23.295Z,14.60
2019-01-30T12:41:54.341Z,9.88
2019-01-30T12:44:25.427Z,12.43
2019-01-30T12:46:56.469Z,9.88
2019-01-30T12:49:27.489Z,9.48
2019-01-30T12:51:58.526Z,10.03
2019-01-30T12:54:29.577Z,12.68
2019-01-30T12:57:00.595Z,14.38
2019-01-30T12:59:31.623Z,11.88
2019-01-30T13:02:02.631Z,3.52
2019-01-30T13:04:38.906Z,8.75
2019-01-30T13:07:06.398Z,14.18
2019-01-30T13:09:37.426Z,10.53
2019-01-30T13:12:08.510Z,50.95
2019-01-30T13:14:39.533Z,88.95
2019-01-30T13:17:10.638Z,10.23
2019-01-30T13:19:41.767Z,103.67
2019-01-30T13:22:12.717Z,18.70
2019-01-30T13:24:43.755Z,63.52
2019-01-30T13:27:14.781Z,9.75
2019-01-30T13:29:45.817Z,34.30
2019-01-30T13:32:16.966Z,34.25
2019-01-30T13:34:48.934Z,38.17
2019-01-30T13:37:20.277Z,40.40
2019-01-30T13:39:51.300Z,42.45
2019-01-30T13:42:22.367Z,21.20
2019-01-30T13:44:53.400Z,53.17
2019-01-30T13:47:24.428Z,12.07
2019-01-30T13:49:55.451Z,10.53
2019-01-30T13:52:26.586Z,6.83
2019-01-30T13:54:57.579Z,11.83
2019-01-30T13:57:28.652Z,11.83
2019-01-30T13:59:59.677Z,5.95
2019-01-30T14:02:30.725Z,14.33
2019-01-30T14:05:01.790Z,15.48
2019-01-30T14:07:32.818Z,28.23
2019-01-30T14:10:03.881Z,37.73
2019-01-30T14:12:34.958Z,32.90
2019-01-30T14:15:06.688Z,15.32
2019-01-30T14:17:37.698Z,11.85
2019-01-30T14:20:09.547Z,17.02
2019-01-30T14:22:40.556Z,17.00
2019-01-30T14:25:12.145Z,18.95
2019-01-30T14:27:43.234Z,18.62
2019-01-30T14:30:17.537Z,61.70
2019-01-30T14:32:48.601Z,52.13
2019-01-30T14:35:19.714Z,49.20
2019-01-30T14:37:52.007Z,68.22
2019-01-30T14:40:23.215Z,15.43
2019-01-30T14:42:54.309Z,14.20
2019-01-30T14:45:25.370Z,25.02
2019-01-30T14:47:56.431Z,30.30
2019-01-30T14:50:27.500Z,35.83
2019-01-30T14:52:58.542Z,26.23
2019-01-30T14:55:29.867Z,20.48
2019-01-30T14:58:00.850Z,19.87
2019-01-30T15:00:32.663Z,20.48
2019-01-30T15:03:03.700Z,48.23
2019-01-30T15:05:34.694Z,43.08
2019-01-30T15:08:05.768Z,49.42
2019-01-30T15:10:36.805Z,27.70
2019-01-30T15:13:08.383Z,32.63
2019-01-30T15:15:39.401Z,29.70
2019-01-30T15:18:10.512Z,30.77
2019-01-30T15:20:41.540Z,37.48
2019-01-30T15:23:12.790Z,37.88
2019-01-30T15:25:43.853Z,42.83
2019-01-30T15:28:14.913Z,45.73
2019-01-30T15:30:47.845Z,38.58
2019-01-30T15:33:19.165Z,56.35
2019-01-30T15:35:50.214Z,38.28
2019-01-30T15:38:21.282Z,14.83
2019-01-30T15:40:52.328Z,27.22
2019-01-30T15:43:23.383Z,21.12
2019-01-30T15:45:54.424Z,36.05
2019-01-30T15:48:25.468Z,34.83
2019-01-30T15:50:56.520Z,59.53
2019-01-30T15:53:28.413Z,57.90
2019-01-30T15:55:59.466Z,63.48
2019-01-30T15:58:30.559Z,31.70
2019-01-30T16:01:12.410Z,18.95
2019-01-30T16:03:43.573Z,16.10
2019-01-30T16:06:14.625Z,27.25
2019-01-30T16:08:45.708Z,42.45
2019-01-30T16:11:16.769Z,24.25
2019-01-30T16:13:47.883Z,19.15
2019-01-30T16:16:19.374Z,20.35
2019-01-30T16:18:50.446Z,17.62
2019-01-30T16:21:21.506Z,23.35
2019-01-30T16:23:52.607Z,36.68
2019-01-30T16:26:23.629Z,46.92
2019-01-30T16:28:54.681Z,52.25
2019-01-30T16:31:25.844Z,39.78
2019-01-30T16:33:56.708Z,29.85
2019-01-30T16:36:27.862Z,25.48
2019-01-30T16:38:58.976Z,34.30
2019-01-30T16:41:29.952Z,27.35
2019-01-30T16:44:01.013Z,54.13
2019-01-30T16:46:32.081Z,50.50
2019-01-30T16:49:03.145Z,58.60
2019-01-30T16:51:35.233Z,41.95
2019-01-30T16:54:08.424Z,54.03
2019-01-30T16:56:39.488Z,47.85
2019-01-30T16:59:10.556Z,40.85
2019-01-30T17:01:41.642Z,28.27
2019-01-30T17:04:12.763Z,47.58
2019-01-30T17:06:44.935Z,65.37
2019-01-30T17:09:17.744Z,55.98
2019-01-30T17:11:48.833Z,76.70
2019-01-30T17:14:19.891Z,79.42
2019-01-30T17:16:50.939Z,52.98
2019-01-30T17:19:22.001Z,59.65
2019-01-30T17:21:53.092Z,74.45
2019-01-30T17:24:24.154Z,54.73
2019-01-30T17:26:55.218Z,42.15
2019-01-30T17:29:26.279Z,44.65
2019-01-30T17:31:57.345Z,61.63
2019-01-30T17:34:28.421Z,63.85
2019-01-30T17:36:59.582Z,63.00
2019-01-30T17:39:30.612Z,56.88
2019-01-30T17:42:01.699Z,52.45
2019-01-30T17:44:32.753Z,60.20
2019-01-30T17:47:03.812Z,77.92
2019-01-30T17:49:34.893Z,70.97
2019-01-30T17:52:05.973Z,69.32
2019-01-30T17:54:37.065Z,58.05
2019-01-30T17:57:08.131Z,52.65
2019-01-30T17:59:41.050Z,59.03
2019-01-30T18:02:12.245Z,90.12
2019-01-30T18:04:43.314Z,94.22
2019-01-30T18:07:14.440Z,106.55
2019-01-30T18:09:45.699Z,95.42
2019-01-30T18:12:16.758Z,103.70
2019-01-30T18:14:47.814Z,59.55
2019-01-30T18:17:18.944Z,55.45
2019-01-30T18:19:50.103Z,56.75
2019-01-30T18:22:21.177Z,28.62
2019-01-30T18:24:52.250Z,27.00
2019-01-30T18:27:23.364Z,58.58
2019-01-30T18:29:54.430Z,100.55
2019-01-30T18:32:25.530Z,107.55
2019-01-30T18:34:57.434Z,116.75
2019-01-30T18:37:28.324Z,159.87
2019-01-30T18:39:59.422Z,182.15
2019-01-30T18:42:30.521Z,171.75
2019-01-30T18:45:01.812Z,166.68
2019-01-30T18:47:32.915Z,127.97
2019-01-30T18:50:04.333Z,100.22
2019-01-30T18:52:35.469Z,123.82
2019-01-30T18:55:07.077Z,110.03
2019-01-30T18:57:38.191Z,116.67
2019-01-30T19:00:13.957Z,140.22
2019-01-30T19:02:45.018Z,145.15
2019-01-30T19:05:16.131Z,155.95
2019-01-30T19:07:47.273Z,144.68
2019-01-30T19:10:18.755Z,167.32
2019-01-30T19:12:50.183Z,180.72
2019-01-30T19:15:22.643Z,102.25
2019-01-30T19:17:53.997Z,77.27
2019-01-30T19:20:36.195Z,76.90
2019-01-30T19:23:07.287Z,62.23
2019-01-30T19:25:38.382Z,63.08
2019-01-30T19:28:09.651Z,61.10
2019-01-30T19:30:40.707Z,58.78
2019-01-30T19:33:11.930Z,52.43
2019-01-30T19:35:45.440Z,64.67
2019-01-30T19:38:16.590Z,50.35
2019-01-30T19:40:49.204Z,45.78
2019-01-30T19:43:20.259Z,44.30
2019-01-30T19:45:51.389Z,45.70
2019-01-30T19:48:22.513Z,52.13
2019-01-30T19:50:54.198Z,39.73
2019-01-30T19:53:25.303Z,25.97
2019-01-30T19:55:56.375Z,33.98
2019-01-30T19:58:28.456Z,61.13
2019-01-30T20:01:00.014Z,56.95
2019-01-30T20:03:33.118Z,72.53
2019-01-30T20:06:04.215Z,72.37
2019-01-30T20:08:35.370Z,72.97
2019-01-30T20:11:06.336Z,78.02
2019-01-30T20:13:37.439Z,68.00
2019-01-30T20:16:08.583Z,69.90
2019-01-30T20:18:39.732Z,72.80
2019-01-30T20:21:11.114Z,114.97
2019-01-30T20:23:42.203Z,139.62
2019-01-30T20:26:13.399Z,102.97
2019-01-30T20:28:45.596Z,135.90
2019-01-30T20:31:17.181Z,70.35
2019-01-30T20:33:48.243Z,79.87
2019-01-30T20:36:19.366Z,64.50
2019-01-30T20:38:50.511Z,59.18
2019-01-30T20:41:21.637Z,67.20
2019-01-30T20:43:52.717Z,59.67
2019-01-30T20:46:23.860Z,61.60
2019-01-30T20:48:54.937Z,72.42
2019-01-30T20:51:26.033Z,78.72
2019-01-30T20:53:57.156Z,74.80
2019-01-30T20:56:28.229Z,70.65
2019-01-30T20:58:59.285Z,61.25
2019-01-30T21:01:30.370Z,63.87
2019-01-30T21:04:01.449Z,71.17
2019-01-30T21:06:32.507Z,77.20
2019-01-30T21:09:04.569Z,75.97
2019-01-30T21:11:35.641Z,74.58
2019-01-30T21:14:06.749Z,86.28
2019-01-30T21:16:37.821Z,84.22
2019-01-30T21:19:08.891Z,80.67
2019-01-30T21:21:39.980Z,71.17
2019-01-30T21:24:11.097Z,85.95
2019-01-30T21:26:42.192Z,84.77
2019-01-30T21:29:13.379Z,84.00
2019-01-30T21:31:44.572Z,98.67
2019-01-30T21:34:15.589Z,86.08
2019-01-30T21:36:46.666Z,73.62
2019-01-30T21:39:17.788Z,75.37
2019-01-30T21:41:49.159Z,73.87
2019-01-30T21:44:20.302Z,67.60
2019-01-30T21:46:51.419Z,65.52
2019-01-30T21:49:22.597Z,62.55
2019-01-30T21:51:53.697Z,75.72
2019-01-30T21:54:24.830Z,88.82
2019-01-30T21:56:55.952Z,125.22
2019-01-30T21:59:27.137Z,128.38
2019-01-30T22:02:08.132Z,140.88
2019-01-30T22:04:31.326Z,146.20
2019-01-30T22:07:03.470Z,116.53
2019-01-30T22:09:34.601Z,186.52
2019-01-30T22:12:05.704Z,173.43
2019-01-30T22:14:36.928Z,194.32
2019-01-30T22:17:08.036Z,239.35
2019-01-30T22:19:39.146Z,289.30
2019-01-30T22:22:10.218Z,344.65
2019-01-30T22:24:41.349Z,305.65
2019-01-30T22:27:12.453Z,288.45
2019-01-30T22:29:43.601Z,298.60
2019-01-30T22:32:14.708Z,229.53
2019-01-30T22:34:45.870Z,315.15
2019-01-30T22:37:16.993Z,333.30
2019-01-30T22:39:48.081Z,256.52
2019-01-30T22:42:19.155Z,245.07
2019-01-30T22:44:50.251Z,204.35
2019-01-30T22:47:21.336Z,218.27
2019-01-30T22:49:52.454Z,220.33
2019-01-30T22:52:23.528Z,202.95
2019-01-30T22:54:54.607Z,220.20
2019-01-30T22:57:25.700Z,183.78
2019-01-30T22:59:56.781Z,258.47
2019-01-30T23:02:28.327Z,156.78
2019-01-30T23:05:24.680Z,172.20
2019-01-30T23:08:23.566Z,171.70
2019-01-30T23:11:26.444Z,185.95
2019-01-30T23:14:02.790Z,117.60
2019-01-30T23:17:18.529Z,93.42
2019-01-30T23:20:15.730Z,104.03
2019-01-30T23:23:20.882Z,109.25
2019-01-30T23:26:13.603Z,118.47
2019-01-30T23:29:13.739Z,113.30
2019-01-30T23:32:28.204Z,139.53
2019-01-30T23:35:36.040Z,110.42
2019-01-30T23:38:45.840Z,90.07
2019-01-30T23:41:53.717Z,90.35
2019-01-30T23:44:43.624Z,75.52
2019-01-30T23:47:42.186Z,83.12
2019-01-30T23:50:22.477Z,84.03
2019-01-30T23:53:28.093Z,78.45
2019-01-30T23:56:13.647Z,77.13
2019-01-30T23:59:20.272Z,74.10
